Miami, Florida
Traffic Map
Current Weather Conditions
Miami, Florida
Broken Clouds
Broken Clouds
77°
Feels Like: 79°
Wind Chill: 77° Ceiling: 25000
Heat Index: 79° Visibility: 10mi
Dew Point: 60° Wind: 9mph
Humidity: 56% Direction: 120° (ESE)
Pressure: 30.2in Gusts: 0mph
Raw Report DataKMIA 172253Z 12008KT 10SM FEW035 SCT180 BKN250 25/16 A3020 RMK AO2 SLP228 T02500156
Traffic Incident Summary
Active as of:
Severity:
Category:
InformationThere was an issue retrieving the traffic information for this location. Please try a different location or try again shortly.
Advertisements
Track Severe Weather on mobile